ANA241 RJGG-ZSAM
Flight info
| Callsign | ANA241 |
|---|---|
| Flight time | 3h 20m |
| Altitude | 38000 |
| Route | ESPAN DINAH DATIS POPPY AVNUT ROCKY ENGID HONOK ISAKY Y592 POTET A593 LAMEN/K0920S1160 G327 NINAS B221 AND G204 SHZ B221 LJG DCT ENVEN |
| Aircraft | B789/H-SDE1E2E3FGHIJ2J3J4J5M1RWXY/LB1D1 |
Departure
| Time | 2026-04-30 06:17 |
|---|---|
| Airport | Chubu Centrair International Airport (RJGG) |
Arrival
| Time | 2026-04-30 09:37 |
|---|---|
| Airport | Xiamen Gaoqi International Airport (ZSAM) |
| Time | Latitude | Longitude | Altitude | Speed | Heading |
|---|---|---|---|---|---|
| 2026-04-30 05:36 | 34.85619 | 136.81383 | 33 ft | 0 kts | 79° |
| 2026-04-30 06:04 | 34.85616 | 136.81360 | 32 ft | 4 kts | 84° |
| 2026-04-30 06:05 | 34.85606 | 136.81306 | 29 ft | 3 kts | 46° |
| 2026-04-30 06:05 | 34.85588 | 136.81290 | 31 ft | 4 kts | 13° |
| 2026-04-30 06:05 | 34.85564 | 136.81289 | 33 ft | 4 kts | 352° |
| 2026-04-30 06:05 | 34.85549 | 136.81291 | 32 ft | 1 kts | 353° |
| 2026-04-30 06:06 | 34.85547 | 136.81291 | 32 ft | 0 kts | 353° |
| 2026-04-30 06:09 | 34.85552 | 136.81291 | 33 ft | 4 kts | 353° |
| 2026-04-30 06:09 | 34.85599 | 136.81282 | 33 ft | 7 kts | 341° |
| 2026-04-30 06:09 | 34.85620 | 136.81245 | 33 ft | 4 kts | 276° |
| 2026-04-30 06:09 | 34.85616 | 136.81204 | 33 ft | 6 kts | 261° |
| 2026-04-30 06:10 | 34.85608 | 136.81150 | 33 ft | 7 kts | 259° |
| 2026-04-30 06:10 | 34.85598 | 136.81084 | 33 ft | 9 kts | 259° |
| 2026-04-30 06:10 | 34.85585 | 136.81005 | 33 ft | 10 kts | 258° |
| 2026-04-30 06:10 | 34.85569 | 136.80915 | 33 ft | 12 kts | 258° |
| 2026-04-30 06:11 | 34.85575 | 136.80847 | 33 ft | 2 kts | 317° |
| 2026-04-30 06:11 | 34.85593 | 136.80842 | 33 ft | 6 kts | 348° |
| 2026-04-30 06:11 | 34.85663 | 136.80824 | 33 ft | 15 kts | 348° |
| 2026-04-30 06:11 | 34.85791 | 136.80793 | 31 ft | 23 kts | 349° |
| 2026-04-30 06:12 | 34.85971 | 136.80751 | 33 ft | 29 kts | 349° |
| 2026-04-30 06:12 | 34.86152 | 136.80709 | 32 ft | 24 kts | 349° |
| 2026-04-30 06:12 | 34.86315 | 136.80669 | 33 ft | 23 kts | 348° |
| 2026-04-30 06:12 | 34.86471 | 136.80631 | 33 ft | 22 kts | 348° |
| 2026-04-30 06:13 | 34.86620 | 136.80594 | 33 ft | 21 kts | 349° |
| 2026-04-30 06:13 | 34.86764 | 136.80560 | 33 ft | 21 kts | 349° |
| 2026-04-30 06:13 | 34.86905 | 136.80527 | 33 ft | 20 kts | 349° |
| 2026-04-30 06:13 | 34.87040 | 136.80494 | 33 ft | 20 kts | 349° |
| 2026-04-30 06:14 | 34.87173 | 136.80463 | 33 ft | 19 kts | 349° |
| 2026-04-30 06:14 | 34.87299 | 136.80432 | 33 ft | 18 kts | 349° |
| 2026-04-30 06:14 | 34.87396 | 136.80394 | 31 ft | 12 kts | 308° |
| 2026-04-30 06:14 | 34.87399 | 136.80309 | 32 ft | 10 kts | 258° |
| 2026-04-30 06:15 | 34.87384 | 136.80217 | 32 ft | 11 kts | 258° |
| 2026-04-30 06:15 | 34.87348 | 136.80172 | 33 ft | 4 kts | 181° |
| 2026-04-30 06:15 | 34.87333 | 136.80178 | 33 ft | 4 kts | 163° |
| 2026-04-30 06:15 | 34.87319 | 136.80182 | 33 ft | 0 kts | 167° |
| 2026-04-30 06:16 | 34.87276 | 136.80194 | 33 ft | 22 kts | 168° |
| 2026-04-30 06:17 | 34.86914 | 136.80280 | 32 ft | 85 kts | 169° |
| 2026-04-30 06:17 | 34.86132 | 136.80469 | 32 ft | 142 kts | 169° |
| 2026-04-30 06:17 | 34.85013 | 136.80734 | 118 ft | 177 kts | 164° |
| 2026-04-30 06:17 | 34.83862 | 136.81082 | 771 ft | 162 kts | 159° |
| 2026-04-30 06:18 | 34.82833 | 136.81425 | 1606 ft | 157 kts | 168° |
| 2026-04-30 06:18 | 34.81731 | 136.81182 | 2182 ft | 172 kts | 194° |
| 2026-04-30 06:18 | 34.80598 | 136.80651 | 2820 ft | 173 kts | 193° |
| 2026-04-30 06:18 | 34.79544 | 136.80121 | 3754 ft | 160 kts | 198° |
| 2026-04-30 06:19 | 34.78430 | 136.79643 | 4058 ft | 181 kts | 190° |
| 2026-04-30 06:19 | 34.77148 | 136.79195 | 4378 ft | 206 kts | 193° |
| 2026-04-30 06:19 | 34.75705 | 136.78610 | 4721 ft | 231 kts | 195° |
| 2026-04-30 06:19 | 34.74128 | 136.77949 | 5262 ft | 244 kts | 195° |
| 2026-04-30 06:20 | 34.72451 | 136.77256 | 5648 ft | 264 kts | 196° |
| 2026-04-30 06:20 | 34.70714 | 136.76548 | 6654 ft | 263 kts | 197° |
| 2026-04-30 06:20 | 34.68990 | 136.75847 | 7684 ft | 261 kts | 198° |
| 2026-04-30 06:20 | 34.67247 | 136.75132 | 8485 ft | 267 kts | 199° |
| 2026-04-30 06:21 | 34.65489 | 136.74414 | 9450 ft | 267 kts | 199° |
| 2026-04-30 06:21 | 34.63717 | 136.73691 | 10250 ft | 273 kts | 200° |
| 2026-04-30 06:21 | 34.61824 | 136.72915 | 10453 ft | 301 kts | 200° |
| 2026-04-30 06:21 | 34.59781 | 136.72081 | 10586 ft | 327 kts | 200° |
| 2026-04-30 06:22 | 34.57535 | 136.71167 | 10711 ft | 351 kts | 200° |
| 2026-04-30 06:22 | 34.55165 | 136.70367 | 11423 ft | 355 kts | 196° |
| 2026-04-30 06:22 | 34.52758 | 136.69593 | 12074 ft | 360 kts | 199° |
| 2026-04-30 06:22 | 34.50336 | 136.68766 | 12816 ft | 363 kts | 199° |
| 2026-04-30 06:23 | 34.47875 | 136.67962 | 13508 ft | 369 kts | 199° |
| 2026-04-30 06:23 | 34.45372 | 136.67168 | 14170 ft | 374 kts | 199° |
| 2026-04-30 06:23 | 34.42843 | 136.66356 | 14818 ft | 378 kts | 200° |
| 2026-04-30 06:23 | 34.40289 | 136.65525 | 15420 ft | 382 kts | 200° |
| 2026-04-30 06:24 | 34.37710 | 136.64687 | 16024 ft | 386 kts | 200° |
| 2026-04-30 06:24 | 34.35095 | 136.63847 | 16594 ft | 391 kts | 200° |
| 2026-04-30 06:24 | 34.32454 | 136.62997 | 17160 ft | 395 kts | 200° |
| 2026-04-30 06:24 | 34.29782 | 136.62135 | 17712 ft | 399 kts | 200° |
| 2026-04-30 06:25 | 34.27096 | 136.61243 | 18245 ft | 401 kts | 203° |
| 2026-04-30 06:25 | 34.24567 | 136.59866 | 18700 ft | 398 kts | 214° |
| 2026-04-30 06:25 | 34.22344 | 136.57990 | 19218 ft | 394 kts | 224° |
| 2026-04-30 06:25 | 34.20487 | 136.55705 | 19759 ft | 390 kts | 234° |
| 2026-04-30 06:26 | 34.18977 | 136.52997 | 20292 ft | 388 kts | 243° |
| 2026-04-30 06:26 | 34.17913 | 136.50010 | 20774 ft | 388 kts | 253° |
| 2026-04-30 06:26 | 34.17319 | 136.46818 | 21240 ft | 389 kts | 261° |
| 2026-04-30 06:26 | 34.16918 | 136.43568 | 21659 ft | 391 kts | 261° |
| 2026-04-30 06:27 | 34.16519 | 136.40308 | 22110 ft | 393 kts | 261° |
| 2026-04-30 06:27 | 34.16128 | 136.37035 | 22532 ft | 395 kts | 261° |
| 2026-04-30 06:27 | 34.15735 | 136.33786 | 22893 ft | 397 kts | 260° |
| 2026-04-30 06:27 | 34.15328 | 136.30471 | 23298 ft | 399 kts | 260° |
| 2026-04-30 06:28 | 34.14920 | 136.27143 | 23682 ft | 401 kts | 260° |
| 2026-04-30 06:28 | 34.14512 | 136.23806 | 23997 ft | 403 kts | 260° |
| 2026-04-30 06:28 | 34.14100 | 136.20448 | 24286 ft | 405 kts | 260° |
| 2026-04-30 06:28 | 34.13686 | 136.17079 | 24523 ft | 407 kts | 260° |
| 2026-04-30 06:29 | 34.13268 | 136.13687 | 24668 ft | 411 kts | 260° |
| 2026-04-30 06:29 | 34.12844 | 136.10273 | 24984 ft | 411 kts | 260° |
| 2026-04-30 06:29 | 34.12421 | 136.06858 | 25298 ft | 412 kts | 259° |
| 2026-04-30 06:29 | 34.11994 | 136.03419 | 25546 ft | 415 kts | 259° |
| 2026-04-30 06:30 | 34.11565 | 135.99978 | 25875 ft | 415 kts | 259° |
| 2026-04-30 06:30 | 34.11133 | 135.96521 | 26120 ft | 418 kts | 259° |
| 2026-04-30 06:30 | 34.10699 | 135.93050 | 26469 ft | 418 kts | 259° |
| 2026-04-30 06:30 | 34.10263 | 135.89575 | 26701 ft | 420 kts | 259° |
| 2026-04-30 06:31 | 34.09825 | 135.86091 | 27005 ft | 421 kts | 259° |
| 2026-04-30 06:31 | 34.09383 | 135.82587 | 27302 ft | 423 kts | 259° |
| 2026-04-30 06:31 | 34.08939 | 135.79075 | 27580 ft | 425 kts | 259° |
| 2026-04-30 06:31 | 34.08498 | 135.75587 | 27883 ft | 426 kts | 259° |
| 2026-04-30 06:32 | 34.08047 | 135.72038 | 28171 ft | 428 kts | 259° |
| 2026-04-30 06:32 | 34.07595 | 135.68475 | 28469 ft | 430 kts | 259° |
| 2026-04-30 06:32 | 34.07139 | 135.64902 | 28780 ft | 432 kts | 259° |
| 2026-04-30 06:32 | 34.06679 | 135.61311 | 29043 ft | 434 kts | 259° |
| 2026-04-30 06:33 | 34.06218 | 135.57713 | 29327 ft | 435 kts | 259° |
| 2026-04-30 06:33 | 34.05757 | 135.54108 | 29737 ft | 435 kts | 258° |
| 2026-04-30 06:33 | 34.05290 | 135.50491 | 30007 ft | 438 kts | 258° |
| 2026-04-30 06:33 | 34.04820 | 135.46857 | 30277 ft | 440 kts | 258° |
| 2026-04-30 06:34 | 34.04348 | 135.43207 | 30579 ft | 440 kts | 258° |
| 2026-04-30 06:34 | 34.03877 | 135.39558 | 30920 ft | 440 kts | 258° |
| 2026-04-30 06:34 | 34.03428 | 135.35958 | 31223 ft | 440 kts | 258° |
| 2026-04-30 06:34 | 34.02985 | 135.32311 | 31537 ft | 440 kts | 258° |
| 2026-04-30 06:35 | 34.02532 | 135.28656 | 31795 ft | 441 kts | 258° |
| 2026-04-30 06:35 | 34.02069 | 135.24990 | 32032 ft | 442 kts | 258° |
| 2026-04-30 06:35 | 34.01607 | 135.21324 | 32309 ft | 442 kts | 257° |
| 2026-04-30 06:35 | 34.01151 | 135.17672 | 32679 ft | 440 kts | 257° |
| 2026-04-30 06:36 | 34.00695 | 135.14036 | 33122 ft | 436 kts | 257° |
| 2026-04-30 06:36 | 34.00238 | 135.10424 | 33590 ft | 433 kts | 257° |
| 2026-04-30 06:36 | 33.99785 | 135.06851 | 34040 ft | 430 kts | 257° |
| 2026-04-30 06:36 | 33.99339 | 135.03339 | 34417 ft | 427 kts | 257° |
| 2026-04-30 06:37 | 33.98890 | 134.99801 | 34818 ft | 424 kts | 257° |
| 2026-04-30 06:37 | 33.98445 | 134.96304 | 35271 ft | 420 kts | 256° |
| 2026-04-30 06:37 | 33.98000 | 134.92832 | 35606 ft | 418 kts | 256° |
| 2026-04-30 06:37 | 33.97522 | 134.89387 | 35941 ft | 415 kts | 255° |
| 2026-04-30 06:38 | 33.97014 | 134.85971 | 36277 ft | 413 kts | 255° |
| 2026-04-30 06:38 | 33.96522 | 134.82567 | 36622 ft | 411 kts | 256° |
| 2026-04-30 06:38 | 33.96048 | 134.79168 | 36944 ft | 410 kts | 256° |
| 2026-04-30 06:38 | 33.95572 | 134.75791 | 37250 ft | 408 kts | 256° |
| 2026-04-30 06:39 | 33.95093 | 134.72469 | 37537 ft | 407 kts | 256° |
| 2026-04-30 06:39 | 33.94610 | 134.69122 | 37837 ft | 405 kts | 256° |
| 2026-04-30 06:39 | 33.94131 | 134.65777 | 38065 ft | 405 kts | 256° |
| 2026-04-30 06:40 | 33.93164 | 134.59052 | 38045 ft | 406 kts | 255° |
| 2026-04-30 06:40 | 33.92200 | 134.52382 | 38044 ft | 403 kts | 255° |
| 2026-04-30 06:41 | 33.91235 | 134.45737 | 38035 ft | 403 kts | 255° |
| 2026-04-30 06:41 | 33.90265 | 134.39079 | 38051 ft | 405 kts | 255° |
| 2026-04-30 06:42 | 33.89286 | 134.32383 | 38041 ft | 406 kts | 255° |
| 2026-04-30 06:42 | 33.88309 | 134.25734 | 38037 ft | 404 kts | 255° |
| 2026-04-30 06:43 | 33.87323 | 134.19045 | 38025 ft | 408 kts | 255° |
| 2026-04-30 06:43 | 33.86330 | 134.12328 | 38019 ft | 407 kts | 255° |
| 2026-04-30 06:44 | 33.85332 | 134.05613 | 37987 ft | 408 kts | 255° |
| 2026-04-30 06:44 | 33.84330 | 133.98900 | 37997 ft | 407 kts | 255° |
| 2026-04-30 06:45 | 33.83333 | 133.92227 | 38028 ft | 404 kts | 255° |
| 2026-04-30 06:45 | 33.82338 | 133.85611 | 38008 ft | 404 kts | 255° |
| 2026-04-30 06:46 | 33.81400 | 133.78932 | 38001 ft | 404 kts | 257° |
| 2026-04-30 06:46 | 33.80536 | 133.72267 | 37953 ft | 403 kts | 256° |
| 2026-04-30 06:47 | 33.79660 | 133.65547 | 37986 ft | 408 kts | 256° |
| 2026-04-30 06:47 | 33.78785 | 133.58827 | 37997 ft | 404 kts | 256° |
| 2026-04-30 06:48 | 33.77872 | 133.52218 | 37999 ft | 402 kts | 255° |
| 2026-04-30 06:48 | 33.76879 | 133.45567 | 37995 ft | 405 kts | 255° |
| 2026-04-30 06:49 | 33.76048 | 133.40016 | 37978 ft | 405 kts | 255° |
| 2026-04-30 06:49 | 33.75046 | 133.33366 | 37999 ft | 405 kts | 255° |
| 2026-04-30 06:50 | 33.74041 | 133.26714 | 37988 ft | 405 kts | 255° |
| 2026-04-30 06:50 | 33.73032 | 133.20052 | 38000 ft | 405 kts | 255° |
| 2026-04-30 06:51 | 33.72022 | 133.13418 | 37995 ft | 404 kts | 255° |
| 2026-04-30 06:51 | 33.71113 | 133.06747 | 37961 ft | 405 kts | 257° |
| 2026-04-30 06:52 | 33.70339 | 133.00064 | 37973 ft | 407 kts | 257° |
| 2026-04-30 06:52 | 33.69572 | 132.93356 | 37971 ft | 405 kts | 257° |
| 2026-04-30 06:53 | 33.68797 | 132.86652 | 37976 ft | 405 kts | 257° |
| 2026-04-30 06:53 | 33.68019 | 132.79950 | 37973 ft | 405 kts | 257° |
| 2026-04-30 06:54 | 33.67238 | 132.73249 | 37971 ft | 405 kts | 257° |
| 2026-04-30 06:54 | 33.66453 | 132.66546 | 37946 ft | 406 kts | 257° |
| 2026-04-30 06:55 | 33.65668 | 132.59870 | 37964 ft | 406 kts | 257° |
| 2026-04-30 06:55 | 33.64877 | 132.53182 | 37952 ft | 404 kts | 257° |
| 2026-04-30 06:56 | 33.64082 | 132.46495 | 37951 ft | 405 kts | 257° |
| 2026-04-30 06:56 | 33.63284 | 132.39802 | 37968 ft | 406 kts | 257° |
| 2026-04-30 06:57 | 33.62482 | 132.33121 | 37955 ft | 403 kts | 257° |
| 2026-04-30 06:57 | 33.61675 | 132.26435 | 37952 ft | 406 kts | 257° |
| 2026-04-30 06:58 | 33.60870 | 132.19769 | 37961 ft | 406 kts | 257° |
| 2026-04-30 06:58 | 33.60053 | 132.13055 | 37958 ft | 406 kts | 257° |
| 2026-04-30 06:59 | 33.59237 | 132.06372 | 37960 ft | 405 kts | 257° |
| 2026-04-30 06:59 | 33.58416 | 131.99688 | 37962 ft | 404 kts | 257° |
| 2026-04-30 07:00 | 33.57594 | 131.93022 | 37965 ft | 403 kts | 256° |
| 2026-04-30 07:00 | 33.56777 | 131.86420 | 37962 ft | 402 kts | 256° |
| 2026-04-30 07:01 | 33.55949 | 131.79777 | 37976 ft | 404 kts | 256° |
| 2026-04-30 07:01 | 33.55119 | 131.73114 | 37965 ft | 400 kts | 256° |
| 2026-04-30 07:02 | 33.54212 | 131.66542 | 37969 ft | 399 kts | 255° |
| 2026-04-30 07:02 | 33.53271 | 131.59970 | 37975 ft | 401 kts | 255° |
| 2026-04-30 07:03 | 33.52316 | 131.53366 | 37966 ft | 403 kts | 255° |
| 2026-04-30 07:03 | 33.51363 | 131.46783 | 37948 ft | 402 kts | 255° |
| 2026-04-30 07:04 | 33.50403 | 131.40196 | 37947 ft | 400 kts | 255° |
| 2026-04-30 07:04 | 33.49444 | 131.33630 | 37973 ft | 401 kts | 255° |
| 2026-04-30 07:05 | 33.48008 | 131.23840 | 37934 ft | 399 kts | 255° |
| 2026-04-30 07:05 | 33.47039 | 131.17271 | 37929 ft | 400 kts | 255° |
| 2026-04-30 07:06 | 33.46069 | 131.10709 | 37920 ft | 399 kts | 255° |
| 2026-04-30 07:06 | 33.45103 | 131.04211 | 37928 ft | 397 kts | 255° |
| 2026-04-30 07:07 | 33.44131 | 130.97699 | 37922 ft | 398 kts | 255° |
| 2026-04-30 07:07 | 33.43154 | 130.91163 | 37939 ft | 398 kts | 255° |
| 2026-04-30 07:08 | 33.42179 | 130.84680 | 37915 ft | 396 kts | 255° |
| 2026-04-30 07:08 | 33.41201 | 130.78195 | 37906 ft | 397 kts | 255° |
| 2026-04-30 07:09 | 33.40216 | 130.71686 | 37908 ft | 397 kts | 255° |
| 2026-04-30 07:09 | 33.39231 | 130.65196 | 37902 ft | 396 kts | 255° |
| 2026-04-30 07:10 | 33.38243 | 130.58719 | 37904 ft | 395 kts | 255° |
| 2026-04-30 07:10 | 33.37257 | 130.52281 | 37902 ft | 396 kts | 255° |
| 2026-04-30 07:11 | 33.36258 | 130.45774 | 37907 ft | 398 kts | 255° |
| 2026-04-30 07:11 | 33.35255 | 130.39264 | 37893 ft | 396 kts | 255° |
| 2026-04-30 07:12 | 33.34252 | 130.32782 | 37901 ft | 397 kts | 255° |
| 2026-04-30 07:12 | 33.33174 | 130.26344 | 37902 ft | 394 kts | 252° |
| 2026-04-30 07:13 | 33.31874 | 130.19946 | 37877 ft | 394 kts | 252° |
| 2026-04-30 07:13 | 33.30578 | 130.13581 | 37876 ft | 395 kts | 252° |
| 2026-04-30 07:14 | 33.29278 | 130.07228 | 37883 ft | 396 kts | 252° |
| 2026-04-30 07:14 | 33.27970 | 130.00839 | 37904 ft | 396 kts | 252° |
| 2026-04-30 07:15 | 33.26659 | 129.94465 | 37900 ft | 394 kts | 252° |
| 2026-04-30 07:15 | 33.25351 | 129.88116 | 37910 ft | 393 kts | 252° |
| 2026-04-30 07:16 | 33.24040 | 129.81775 | 37874 ft | 393 kts | 252° |
| 2026-04-30 07:16 | 33.22722 | 129.75415 | 37918 ft | 394 kts | 252° |
| 2026-04-30 07:17 | 33.21408 | 129.69092 | 37914 ft | 394 kts | 252° |
| 2026-04-30 07:18 | 33.18756 | 129.59863 | 37919 ft | 391 kts | 246° |
| 2026-04-30 07:18 | 33.16715 | 129.53840 | 37921 ft | 389 kts | 245° |
| 2026-04-30 07:19 | 33.14669 | 129.47874 | 37908 ft | 389 kts | 246° |
| 2026-04-30 07:19 | 33.12615 | 129.41873 | 37906 ft | 392 kts | 246° |
| 2026-04-30 07:20 | 33.10548 | 129.35850 | 37918 ft | 392 kts | 246° |
| 2026-04-30 07:20 | 33.08484 | 129.29846 | 37918 ft | 389 kts | 245° |
| 2026-04-30 07:21 | 33.06434 | 129.23898 | 37921 ft | 388 kts | 245° |
| 2026-04-30 07:21 | 33.04380 | 129.17946 | 37908 ft | 390 kts | 245° |
| 2026-04-30 07:22 | 33.01284 | 129.08996 | 37918 ft | 390 kts | 245° |
| 2026-04-30 07:22 | 32.99221 | 129.03045 | 37929 ft | 388 kts | 245° |
| 2026-04-30 07:23 | 32.97171 | 128.97144 | 37918 ft | 387 kts | 245° |
| 2026-04-30 07:23 | 32.95108 | 128.91215 | 37901 ft | 387 kts | 245° |
| 2026-04-30 07:24 | 32.93030 | 128.85253 | 37900 ft | 390 kts | 245° |
| 2026-04-30 07:24 | 32.90959 | 128.79323 | 37902 ft | 387 kts | 245° |
| 2026-04-30 07:25 | 32.88891 | 128.73413 | 37902 ft | 387 kts | 245° |
| 2026-04-30 07:25 | 32.86815 | 128.67491 | 37923 ft | 388 kts | 245° |
| 2026-04-30 07:26 | 32.84737 | 128.61575 | 37925 ft | 386 kts | 245° |
| 2026-04-30 07:26 | 32.82653 | 128.55651 | 37927 ft | 389 kts | 245° |
| 2026-04-30 07:27 | 32.80576 | 128.49756 | 37933 ft | 389 kts | 245° |
| 2026-04-30 07:27 | 32.78479 | 128.43818 | 37944 ft | 389 kts | 245° |
| 2026-04-30 07:28 | 32.76382 | 128.37888 | 37947 ft | 389 kts | 245° |
| 2026-04-30 07:28 | 32.74285 | 128.31970 | 37922 ft | 388 kts | 245° |
| 2026-04-30 07:29 | 32.72176 | 128.26032 | 37928 ft | 391 kts | 245° |
| 2026-04-30 07:29 | 32.70060 | 128.20081 | 37930 ft | 391 kts | 245° |
| 2026-04-30 07:30 | 32.66916 | 128.11257 | 37934 ft | 385 kts | 245° |
| 2026-04-30 07:31 | 32.64815 | 128.05379 | 37942 ft | 387 kts | 245° |
| 2026-04-30 07:31 | 32.62700 | 127.99468 | 37939 ft | 391 kts | 245° |
| 2026-04-30 07:32 | 32.60566 | 127.93514 | 37952 ft | 390 kts | 245° |
| 2026-04-30 07:32 | 32.58471 | 127.87679 | 37941 ft | 385 kts | 245° |
| 2026-04-30 07:33 | 32.56360 | 127.81815 | 37954 ft | 387 kts | 245° |
| 2026-04-30 07:33 | 32.54238 | 127.75924 | 37951 ft | 389 kts | 245° |
| 2026-04-30 07:34 | 32.52109 | 127.70028 | 37949 ft | 388 kts | 245° |
| 2026-04-30 07:34 | 32.49997 | 127.64187 | 37948 ft | 384 kts | 245° |
| 2026-04-30 07:35 | 32.47899 | 127.58398 | 37955 ft | 384 kts | 245° |
| 2026-04-30 07:35 | 32.45785 | 127.52573 | 37956 ft | 385 kts | 245° |
| 2026-04-30 07:36 | 32.43665 | 127.46739 | 38005 ft | 386 kts | 245° |
| 2026-04-30 07:36 | 32.41548 | 127.40928 | 37967 ft | 383 kts | 245° |
| 2026-04-30 07:37 | 32.39786 | 127.36098 | 37970 ft | 385 kts | 245° |
| 2026-04-30 07:37 | 32.37315 | 127.29334 | 37975 ft | 385 kts | 245° |
| 2026-04-30 07:38 | 32.35542 | 127.24490 | 37980 ft | 385 kts | 245° |
| 2026-04-30 07:38 | 32.33417 | 127.18691 | 37978 ft | 382 kts | 244° |
| 2026-04-30 07:39 | 32.31298 | 127.12925 | 37924 ft | 382 kts | 244° |
| 2026-04-30 07:39 | 32.29173 | 127.07148 | 37982 ft | 386 kts | 245° |
| 2026-04-30 07:40 | 32.27395 | 127.01192 | 37994 ft | 388 kts | 252° |
| 2026-04-30 07:40 | 32.26040 | 126.95024 | 37983 ft | 386 kts | 251° |
| 2026-04-30 07:41 | 32.24693 | 126.88912 | 37986 ft | 384 kts | 251° |
| 2026-04-30 07:41 | 32.23345 | 126.82795 | 37988 ft | 384 kts | 251° |
| 2026-04-30 07:42 | 32.21991 | 126.76678 | 37989 ft | 385 kts | 251° |
| 2026-04-30 07:42 | 32.20633 | 126.70553 | 37993 ft | 385 kts | 251° |
| 2026-04-30 07:43 | 32.19273 | 126.64435 | 37997 ft | 385 kts | 251° |
| 2026-04-30 07:43 | 32.17966 | 126.58338 | 37999 ft | 385 kts | 251° |
| 2026-04-30 07:44 | 32.16640 | 126.52208 | 38005 ft | 385 kts | 251° |
| 2026-04-30 07:44 | 32.15311 | 126.46078 | 38000 ft | 385 kts | 251° |
| 2026-04-30 07:45 | 32.13981 | 126.39953 | 37998 ft | 384 kts | 251° |
| 2026-04-30 07:45 | 32.12657 | 126.33879 | 37998 ft | 384 kts | 251° |
| 2026-04-30 07:46 | 32.11320 | 126.27755 | 38002 ft | 386 kts | 251° |
| 2026-04-30 07:46 | 32.09976 | 126.21612 | 38010 ft | 386 kts | 251° |
| 2026-04-30 07:47 | 32.08635 | 126.15505 | 38009 ft | 384 kts | 251° |
| 2026-04-30 07:47 | 32.07294 | 126.09410 | 38007 ft | 384 kts | 251° |
| 2026-04-30 07:48 | 32.05956 | 126.03312 | 38008 ft | 384 kts | 251° |
| 2026-04-30 07:48 | 32.04660 | 125.97202 | 38007 ft | 384 kts | 251° |
| 2026-04-30 07:49 | 32.03343 | 125.91102 | 38009 ft | 385 kts | 251° |
| 2026-04-30 07:49 | 32.02032 | 125.85009 | 38021 ft | 386 kts | 251° |
| 2026-04-30 07:50 | 32.00706 | 125.78873 | 38024 ft | 386 kts | 251° |
| 2026-04-30 07:50 | 31.99354 | 125.72740 | 38019 ft | 386 kts | 251° |
| 2026-04-30 07:51 | 31.97995 | 125.66633 | 38018 ft | 384 kts | 251° |
| 2026-04-30 07:51 | 31.96645 | 125.60550 | 38015 ft | 384 kts | 251° |
| 2026-04-30 07:52 | 31.95286 | 125.54462 | 37971 ft | 384 kts | 251° |
| 2026-04-30 07:52 | 31.93925 | 125.48368 | 38018 ft | 387 kts | 251° |
| 2026-04-30 07:53 | 31.92562 | 125.42279 | 38032 ft | 384 kts | 251° |
| 2026-04-30 07:53 | 31.91198 | 125.36210 | 38031 ft | 383 kts | 251° |
| 2026-04-30 07:54 | 31.89843 | 125.30184 | 38031 ft | 383 kts | 251° |
| 2026-04-30 07:54 | 31.88472 | 125.24110 | 38072 ft | 383 kts | 251° |
| 2026-04-30 07:55 | 31.87103 | 125.18054 | 38035 ft | 382 kts | 251° |
| 2026-04-30 07:55 | 31.85728 | 125.11992 | 38033 ft | 383 kts | 251° |
| 2026-04-30 07:56 | 31.84348 | 125.05921 | 38039 ft | 385 kts | 251° |
| 2026-04-30 07:56 | 31.82961 | 124.99831 | 38047 ft | 385 kts | 251° |
| 2026-04-30 07:57 | 31.81643 | 124.93723 | 38048 ft | 384 kts | 252° |
| 2026-04-30 07:57 | 31.80340 | 124.87684 | 38047 ft | 383 kts | 251° |
| 2026-04-30 07:58 | 31.79019 | 124.81611 | 38049 ft | 383 kts | 251° |
| 2026-04-30 07:58 | 31.77701 | 124.75537 | 38048 ft | 383 kts | 251° |
| 2026-04-30 07:59 | 31.76375 | 124.69466 | 38053 ft | 382 kts | 251° |
| 2026-04-30 07:59 | 31.75048 | 124.63391 | 38055 ft | 384 kts | 251° |
| 2026-04-30 08:00 | 31.73056 | 124.54301 | 38061 ft | 385 kts | 251° |
| 2026-04-30 08:00 | 31.71714 | 124.48201 | 38070 ft | 385 kts | 251° |
| 2026-04-30 08:01 | 31.70368 | 124.42093 | 38068 ft | 385 kts | 251° |
| 2026-04-30 08:01 | 31.69029 | 124.36030 | 38063 ft | 382 kts | 251° |
| 2026-04-30 08:02 | 31.67022 | 124.26979 | 38019 ft | 383 kts | 251° |
| 2026-04-30 08:03 | 31.64316 | 124.14820 | 38063 ft | 384 kts | 252° |
| 2026-04-30 08:04 | 31.62959 | 124.08745 | 38066 ft | 384 kts | 251° |
| 2026-04-30 08:04 | 31.61469 | 124.02746 | 38082 ft | 381 kts | 247° |
| 2026-04-30 08:05 | 31.59161 | 123.97142 | 38080 ft | 382 kts | 239° |
| 2026-04-30 08:05 | 31.56141 | 123.92001 | 38076 ft | 389 kts | 236° |
| 2026-04-30 08:06 | 31.53018 | 123.86846 | 38086 ft | 386 kts | 236° |
| 2026-04-30 08:06 | 31.49896 | 123.81722 | 38080 ft | 386 kts | 236° |
| 2026-04-30 08:07 | 31.46775 | 123.76594 | 38086 ft | 386 kts | 236° |
| 2026-04-30 08:07 | 31.43672 | 123.71508 | 38086 ft | 386 kts | 236° |
| 2026-04-30 08:08 | 31.40532 | 123.66367 | 38072 ft | 390 kts | 236° |
| 2026-04-30 08:08 | 31.37386 | 123.61224 | 38066 ft | 385 kts | 236° |
| 2026-04-30 08:09 | 31.34262 | 123.56122 | 38072 ft | 386 kts | 236° |
| 2026-04-30 08:09 | 31.31139 | 123.51005 | 38073 ft | 386 kts | 237° |
| 2026-04-30 08:10 | 31.28052 | 123.45901 | 38084 ft | 387 kts | 236° |
| 2026-04-30 08:10 | 31.24928 | 123.40770 | 38087 ft | 387 kts | 237° |
| 2026-04-30 08:11 | 31.21809 | 123.35643 | 38079 ft | 385 kts | 237° |
| 2026-04-30 08:11 | 31.18694 | 123.30534 | 38078 ft | 386 kts | 237° |
| 2026-04-30 08:12 | 31.15595 | 123.25455 | 38082 ft | 386 kts | 237° |
| 2026-04-30 08:12 | 31.12476 | 123.20351 | 38078 ft | 386 kts | 236° |
| 2026-04-30 08:13 | 31.09357 | 123.15256 | 38125 ft | 386 kts | 237° |
| 2026-04-30 08:13 | 31.06225 | 123.10142 | 38086 ft | 385 kts | 237° |
| 2026-04-30 08:14 | 31.03125 | 123.05089 | 38090 ft | 385 kts | 237° |
| 2026-04-30 08:14 | 31.00383 | 122.99757 | 38099 ft | 383 kts | 245° |
| 2026-04-30 08:15 | 30.98534 | 122.93907 | 38103 ft | 385 kts | 252° |
| 2026-04-30 08:15 | 30.97070 | 122.87896 | 38129 ft | 387 kts | 252° |
| 2026-04-30 08:16 | 30.95605 | 122.81844 | 38099 ft | 391 kts | 252° |
| 2026-04-30 08:16 | 30.94133 | 122.75789 | 38089 ft | 385 kts | 252° |
| 2026-04-30 08:17 | 30.92666 | 122.69775 | 38096 ft | 387 kts | 252° |
| 2026-04-30 08:17 | 30.91194 | 122.63741 | 38101 ft | 388 kts | 252° |
| 2026-04-30 08:18 | 30.89705 | 122.57664 | 38097 ft | 391 kts | 252° |
| 2026-04-30 08:18 | 30.88228 | 122.51635 | 38096 ft | 389 kts | 252° |
| 2026-04-30 08:19 | 30.86737 | 122.45574 | 38094 ft | 388 kts | 252° |
| 2026-04-30 08:19 | 30.85247 | 122.39526 | 38095 ft | 388 kts | 252° |
| 2026-04-30 08:20 | 30.83760 | 122.33509 | 38066 ft | 389 kts | 252° |
| 2026-04-30 08:20 | 30.82258 | 122.27436 | 38094 ft | 391 kts | 252° |
| 2026-04-30 08:21 | 30.80721 | 122.21369 | 38100 ft | 391 kts | 249° |
| 2026-04-30 08:21 | 30.78449 | 122.15638 | 38115 ft | 391 kts | 241° |
| 2026-04-30 08:22 | 30.75500 | 122.10307 | 38096 ft | 391 kts | 240° |
| 2026-04-30 08:22 | 30.72543 | 122.05015 | 38105 ft | 396 kts | 239° |
| 2026-04-30 08:23 | 30.69514 | 121.99631 | 38037 ft | 398 kts | 239° |
| 2026-04-30 08:23 | 30.66514 | 121.94292 | 38087 ft | 392 kts | 240° |
| 2026-04-30 08:24 | 30.63533 | 121.88996 | 38091 ft | 392 kts | 239° |
| 2026-04-30 08:24 | 30.60538 | 121.83683 | 38083 ft | 393 kts | 239° |
| 2026-04-30 08:25 | 30.57537 | 121.78368 | 38091 ft | 396 kts | 240° |
| 2026-04-30 08:25 | 30.54488 | 121.72971 | 38086 ft | 401 kts | 240° |
| 2026-04-30 08:26 | 30.51451 | 121.67612 | 38090 ft | 394 kts | 240° |
| 2026-04-30 08:26 | 30.48458 | 121.62324 | 38089 ft | 395 kts | 240° |
| 2026-04-30 08:27 | 30.45923 | 121.57859 | 38096 ft | 396 kts | 240° |
| 2026-04-30 08:27 | 30.42903 | 121.52544 | 38101 ft | 398 kts | 240° |
| 2026-04-30 08:28 | 30.39833 | 121.47146 | 38115 ft | 403 kts | 240° |
| 2026-04-30 08:28 | 30.36746 | 121.41731 | 38042 ft | 401 kts | 240° |
| 2026-04-30 08:29 | 30.33706 | 121.36395 | 38093 ft | 395 kts | 240° |
| 2026-04-30 08:29 | 30.30695 | 121.31103 | 38096 ft | 397 kts | 240° |
| 2026-04-30 08:30 | 30.27495 | 121.25838 | 38111 ft | 401 kts | 234° |
| 2026-04-30 08:30 | 30.23441 | 121.21273 | 38114 ft | 415 kts | 225° |
| 2026-04-30 08:31 | 30.18524 | 121.17692 | 38059 ft | 423 kts | 217° |
| 2026-04-30 08:31 | 30.13367 | 121.14489 | 38103 ft | 420 kts | 218° |
| 2026-04-30 08:32 | 30.08206 | 121.11305 | 38104 ft | 420 kts | 217° |
| 2026-04-30 08:32 | 30.03039 | 121.08117 | 38103 ft | 421 kts | 217° |
| 2026-04-30 08:33 | 29.97872 | 121.04932 | 38106 ft | 421 kts | 217° |
| 2026-04-30 08:33 | 29.92694 | 121.01734 | 38109 ft | 422 kts | 218° |
| 2026-04-30 08:34 | 29.87544 | 120.98549 | 38112 ft | 422 kts | 217° |
| 2026-04-30 08:34 | 29.82361 | 120.95357 | 38126 ft | 423 kts | 218° |
| 2026-04-30 08:35 | 29.77133 | 120.92129 | 38074 ft | 427 kts | 217° |
| 2026-04-30 08:35 | 29.71914 | 120.88925 | 38094 ft | 425 kts | 218° |
| 2026-04-30 08:36 | 29.66701 | 120.85715 | 38106 ft | 425 kts | 218° |
| 2026-04-30 08:36 | 29.61345 | 120.82739 | 38125 ft | 434 kts | 210° |
| 2026-04-30 08:37 | 29.55393 | 120.81068 | 38123 ft | 454 kts | 198° |
| 2026-04-30 08:37 | 29.49066 | 120.80403 | 38105 ft | 457 kts | 197° |
| 2026-04-30 08:38 | 29.42737 | 120.79755 | 38107 ft | 457 kts | 197° |
| 2026-04-30 08:38 | 29.36406 | 120.79114 | 38110 ft | 456 kts | 197° |
| 2026-04-30 08:39 | 29.30079 | 120.78468 | 38040 ft | 456 kts | 197° |
| 2026-04-30 08:39 | 29.23756 | 120.77828 | 38103 ft | 456 kts | 197° |
| 2026-04-30 08:40 | 29.17433 | 120.77186 | 38107 ft | 456 kts | 197° |
| 2026-04-30 08:40 | 29.11115 | 120.76547 | 38106 ft | 455 kts | 197° |
| 2026-04-30 08:41 | 29.04838 | 120.75911 | 38076 ft | 454 kts | 197° |
| 2026-04-30 08:41 | 28.98528 | 120.75274 | 38102 ft | 455 kts | 197° |
| 2026-04-30 08:42 | 28.92222 | 120.74638 | 38105 ft | 455 kts | 197° |
| 2026-04-30 08:42 | 28.85896 | 120.74000 | 38102 ft | 456 kts | 197° |
| 2026-04-30 08:43 | 28.79651 | 120.73320 | 38107 ft | 450 kts | 197° |
| 2026-04-30 08:43 | 28.73430 | 120.72631 | 38104 ft | 448 kts | 196° |
| 2026-04-30 08:44 | 28.67205 | 120.71957 | 38103 ft | 450 kts | 196° |
| 2026-04-30 08:44 | 28.60955 | 120.71343 | 38103 ft | 451 kts | 196° |
| 2026-04-30 08:45 | 28.54711 | 120.70709 | 38104 ft | 449 kts | 195° |
| 2026-04-30 08:45 | 28.48476 | 120.70083 | 38092 ft | 450 kts | 195° |
| 2026-04-30 08:46 | 28.42298 | 120.69465 | 38092 ft | 447 kts | 195° |
| 2026-04-30 08:46 | 28.36087 | 120.68854 | 38091 ft | 449 kts | 195° |
| 2026-04-30 08:47 | 28.29875 | 120.68244 | 38099 ft | 447 kts | 195° |
| 2026-04-30 08:47 | 28.23626 | 120.67627 | 38096 ft | 451 kts | 194° |
| 2026-04-30 08:48 | 28.17375 | 120.67017 | 38096 ft | 450 kts | 194° |
| 2026-04-30 08:48 | 28.11169 | 120.66407 | 38094 ft | 449 kts | 194° |
| 2026-04-30 08:49 | 28.04947 | 120.65799 | 38098 ft | 449 kts | 194° |
| 2026-04-30 08:49 | 27.98667 | 120.65193 | 38098 ft | 455 kts | 194° |
| 2026-04-30 08:50 | 27.92373 | 120.64621 | 38099 ft | 453 kts | 194° |
| 2026-04-30 08:50 | 27.86093 | 120.64028 | 38098 ft | 453 kts | 194° |
| 2026-04-30 08:51 | 27.79811 | 120.63432 | 38098 ft | 450 kts | 197° |
| 2026-04-30 08:51 | 27.73869 | 120.61684 | 38105 ft | 435 kts | 210° |
| 2026-04-30 08:52 | 27.68634 | 120.58433 | 38099 ft | 427 kts | 218° |
| 2026-04-30 08:52 | 27.63623 | 120.54870 | 38104 ft | 429 kts | 218° |
| 2026-04-30 08:53 | 27.58581 | 120.51263 | 38100 ft | 428 kts | 218° |
| 2026-04-30 08:53 | 27.53542 | 120.47674 | 38102 ft | 428 kts | 218° |
| 2026-04-30 08:54 | 27.48514 | 120.44091 | 38104 ft | 428 kts | 218° |
| 2026-04-30 08:54 | 27.43511 | 120.40532 | 38100 ft | 428 kts | 218° |
| 2026-04-30 08:55 | 27.38465 | 120.36945 | 38088 ft | 429 kts | 218° |
| 2026-04-30 08:55 | 27.33409 | 120.33359 | 38092 ft | 431 kts | 218° |
| 2026-04-30 08:56 | 27.28319 | 120.29762 | 38095 ft | 432 kts | 218° |
| 2026-04-30 08:56 | 27.23219 | 120.26156 | 38098 ft | 433 kts | 218° |
| 2026-04-30 08:57 | 27.18123 | 120.22560 | 38105 ft | 432 kts | 218° |
| 2026-04-30 08:57 | 27.13063 | 120.18991 | 38106 ft | 433 kts | 218° |
| 2026-04-30 08:58 | 27.07940 | 120.15351 | 38108 ft | 436 kts | 218° |
| 2026-04-30 08:58 | 27.02829 | 120.11716 | 38099 ft | 434 kts | 218° |
| 2026-04-30 08:59 | 26.97720 | 120.08091 | 38105 ft | 434 kts | 218° |
| 2026-04-30 08:59 | 26.92623 | 120.04475 | 38107 ft | 433 kts | 218° |
| 2026-04-30 09:00 | 26.87502 | 120.00847 | 38095 ft | 438 kts | 218° |
| 2026-04-30 09:00 | 26.82353 | 119.97209 | 38098 ft | 437 kts | 218° |
| 2026-04-30 09:01 | 26.77237 | 119.93598 | 38101 ft | 437 kts | 218° |
| 2026-04-30 09:01 | 26.74660 | 119.91780 | 37940 ft | 438 kts | 218° |
| 2026-04-30 09:01 | 26.72071 | 119.89955 | 37623 ft | 442 kts | 218° |
| 2026-04-30 09:01 | 26.69439 | 119.88097 | 37278 ft | 453 kts | 218° |
| 2026-04-30 09:02 | 26.64012 | 119.84283 | 36658 ft | 461 kts | 217° |
| 2026-04-30 09:02 | 26.61309 | 119.82388 | 36357 ft | 456 kts | 218° |
| 2026-04-30 09:02 | 26.58632 | 119.80504 | 36045 ft | 453 kts | 218° |
| 2026-04-30 09:03 | 26.56001 | 119.78651 | 35735 ft | 451 kts | 218° |
| 2026-04-30 09:03 | 26.53349 | 119.76789 | 35428 ft | 449 kts | 218° |
| 2026-04-30 09:03 | 26.50702 | 119.74935 | 35125 ft | 448 kts | 218° |
| 2026-04-30 09:03 | 26.48063 | 119.73085 | 34829 ft | 446 kts | 218° |
| 2026-04-30 09:04 | 26.45432 | 119.71237 | 34503 ft | 447 kts | 218° |
| 2026-04-30 09:04 | 26.42790 | 119.69381 | 34200 ft | 448 kts | 218° |
| 2026-04-30 09:04 | 26.40190 | 119.67561 | 33874 ft | 446 kts | 218° |
| 2026-04-30 09:04 | 26.37571 | 119.65728 | 33547 ft | 443 kts | 218° |
| 2026-04-30 09:05 | 26.34968 | 119.63904 | 33215 ft | 440 kts | 218° |
| 2026-04-30 09:05 | 26.32370 | 119.62083 | 32880 ft | 438 kts | 218° |
| 2026-04-30 09:05 | 26.29793 | 119.60280 | 32561 ft | 436 kts | 218° |
| 2026-04-30 09:05 | 26.27230 | 119.58490 | 32238 ft | 433 kts | 218° |
| 2026-04-30 09:06 | 26.24678 | 119.56706 | 31921 ft | 432 kts | 218° |
| 2026-04-30 09:06 | 26.22133 | 119.54926 | 31589 ft | 432 kts | 217° |
| 2026-04-30 09:06 | 26.19598 | 119.53131 | 31290 ft | 430 kts | 218° |
| 2026-04-30 09:06 | 26.17104 | 119.51302 | 30985 ft | 428 kts | 219° |
| 2026-04-30 09:07 | 26.14648 | 119.49503 | 30685 ft | 426 kts | 218° |
| 2026-04-30 09:07 | 26.12159 | 119.47714 | 30385 ft | 425 kts | 218° |
| 2026-04-30 09:07 | 26.09676 | 119.45933 | 30070 ft | 423 kts | 218° |
| 2026-04-30 09:07 | 26.07214 | 119.44155 | 29710 ft | 420 kts | 218° |
| 2026-04-30 09:08 | 26.04772 | 119.42387 | 29377 ft | 418 kts | 218° |
| 2026-04-30 09:08 | 26.02335 | 119.40629 | 29035 ft | 417 kts | 218° |
| 2026-04-30 09:08 | 25.99904 | 119.38880 | 28667 ft | 415 kts | 218° |
| 2026-04-30 09:08 | 25.97477 | 119.37132 | 28339 ft | 416 kts | 218° |
| 2026-04-30 09:09 | 25.95082 | 119.35407 | 28016 ft | 414 kts | 218° |
| 2026-04-30 09:09 | 25.92674 | 119.33675 | 27690 ft | 412 kts | 218° |
| 2026-04-30 09:09 | 25.90270 | 119.31946 | 27363 ft | 410 kts | 218° |
| 2026-04-30 09:09 | 25.87880 | 119.30228 | 27050 ft | 408 kts | 218° |
| 2026-04-30 09:10 | 25.85503 | 119.28520 | 26718 ft | 405 kts | 218° |
| 2026-04-30 09:10 | 25.83138 | 119.26828 | 26428 ft | 406 kts | 218° |
| 2026-04-30 09:10 | 25.80775 | 119.25127 | 26096 ft | 404 kts | 218° |
| 2026-04-30 09:10 | 25.78422 | 119.23434 | 25813 ft | 402 kts | 218° |
| 2026-04-30 09:11 | 25.76069 | 119.21748 | 25486 ft | 402 kts | 218° |
| 2026-04-30 09:11 | 25.73720 | 119.20066 | 25191 ft | 402 kts | 218° |
| 2026-04-30 09:11 | 25.71379 | 119.18390 | 24893 ft | 399 kts | 218° |
| 2026-04-30 09:11 | 25.69051 | 119.16723 | 24597 ft | 397 kts | 218° |
| 2026-04-30 09:12 | 25.66731 | 119.15060 | 24302 ft | 396 kts | 218° |
| 2026-04-30 09:12 | 25.64423 | 119.13410 | 24024 ft | 394 kts | 218° |
| 2026-04-30 09:12 | 25.62119 | 119.11762 | 23737 ft | 393 kts | 218° |
| 2026-04-30 09:12 | 25.59858 | 119.10146 | 23422 ft | 392 kts | 218° |
| 2026-04-30 09:13 | 25.57571 | 119.08513 | 23102 ft | 390 kts | 218° |
| 2026-04-30 09:13 | 25.55298 | 119.06891 | 22757 ft | 388 kts | 218° |
| 2026-04-30 09:13 | 25.53034 | 119.05272 | 22413 ft | 387 kts | 218° |
| 2026-04-30 09:13 | 25.50766 | 119.03654 | 22082 ft | 386 kts | 218° |
| 2026-04-30 09:14 | 25.48509 | 119.02046 | 21766 ft | 385 kts | 218° |
| 2026-04-30 09:14 | 25.46260 | 119.00443 | 21442 ft | 384 kts | 218° |
| 2026-04-30 09:14 | 25.44020 | 118.98846 | 21124 ft | 382 kts | 218° |
| 2026-04-30 09:14 | 25.41790 | 118.97258 | 20808 ft | 380 kts | 217° |
| 2026-04-30 09:15 | 25.39568 | 118.95677 | 20504 ft | 379 kts | 217° |
| 2026-04-30 09:15 | 25.37353 | 118.94101 | 20199 ft | 378 kts | 218° |
| 2026-04-30 09:15 | 25.35146 | 118.92519 | 19905 ft | 376 kts | 220° |
| 2026-04-30 09:15 | 25.33213 | 118.90668 | 19627 ft | 369 kts | 231° |
| 2026-04-30 09:16 | 25.31475 | 118.88582 | 19330 ft | 368 kts | 231° |
| 2026-04-30 09:16 | 25.29750 | 118.86491 | 19051 ft | 367 kts | 232° |
| 2026-04-30 09:16 | 25.28037 | 118.84410 | 18753 ft | 366 kts | 232° |
| 2026-04-30 09:16 | 25.26900 | 118.83033 | 18566 ft | 365 kts | 231° |
| 2026-04-30 09:17 | 25.25190 | 118.80968 | 18256 ft | 364 kts | 231° |
| 2026-04-30 09:17 | 25.23484 | 118.78907 | 17924 ft | 362 kts | 231° |
| 2026-04-30 09:17 | 25.21789 | 118.76858 | 17582 ft | 360 kts | 231° |
| 2026-04-30 09:17 | 25.19549 | 118.74152 | 17156 ft | 358 kts | 231° |
| 2026-04-30 09:18 | 25.18417 | 118.72785 | 16934 ft | 356 kts | 231° |
| 2026-04-30 09:18 | 25.16748 | 118.70773 | 16622 ft | 355 kts | 231° |
| 2026-04-30 09:18 | 25.15085 | 118.68767 | 16302 ft | 352 kts | 231° |
| 2026-04-30 09:18 | 25.13452 | 118.66797 | 15996 ft | 353 kts | 231° |
| 2026-04-30 09:19 | 25.12127 | 118.65198 | 15748 ft | 352 kts | 231° |
| 2026-04-30 09:19 | 25.10416 | 118.63138 | 15424 ft | 352 kts | 231° |
| 2026-04-30 09:19 | 25.08742 | 118.61172 | 15113 ft | 351 kts | 228° |
| 2026-04-30 09:19 | 25.07039 | 118.59246 | 14798 ft | 349 kts | 230° |
| 2026-04-30 09:20 | 25.05387 | 118.57296 | 14507 ft | 347 kts | 230° |
| 2026-04-30 09:20 | 25.03722 | 118.55367 | 14209 ft | 347 kts | 229° |
| 2026-04-30 09:20 | 25.02045 | 118.53458 | 13920 ft | 346 kts | 229° |
| 2026-04-30 09:20 | 25.00380 | 118.51558 | 13600 ft | 344 kts | 229° |
| 2026-04-30 09:21 | 24.98723 | 118.49653 | 13272 ft | 342 kts | 229° |
| 2026-04-30 09:21 | 24.97081 | 118.47765 | 12984 ft | 339 kts | 229° |
| 2026-04-30 09:21 | 24.95469 | 118.45918 | 12732 ft | 338 kts | 229° |
| 2026-04-30 09:21 | 24.93836 | 118.44049 | 12483 ft | 338 kts | 229° |
| 2026-04-30 09:22 | 24.92208 | 118.42186 | 12243 ft | 336 kts | 229° |
| 2026-04-30 09:22 | 24.90589 | 118.40332 | 11988 ft | 336 kts | 229° |
| 2026-04-30 09:22 | 24.88975 | 118.38483 | 11742 ft | 334 kts | 229° |
| 2026-04-30 09:22 | 24.87365 | 118.36643 | 11505 ft | 334 kts | 229° |
| 2026-04-30 09:23 | 24.85752 | 118.34799 | 11272 ft | 331 kts | 229° |
| 2026-04-30 09:23 | 24.84191 | 118.33018 | 11017 ft | 316 kts | 229° |
| 2026-04-30 09:23 | 24.82699 | 118.31313 | 10762 ft | 303 kts | 229° |
| 2026-04-30 09:23 | 24.81263 | 118.29673 | 10490 ft | 291 kts | 229° |
| 2026-04-30 09:24 | 24.79878 | 118.28090 | 10238 ft | 283 kts | 229° |
| 2026-04-30 09:24 | 24.78539 | 118.26561 | 9985 ft | 278 kts | 229° |
| 2026-04-30 09:24 | 24.77191 | 118.25022 | 9709 ft | 279 kts | 229° |
| 2026-04-30 09:24 | 24.75844 | 118.23486 | 9442 ft | 277 kts | 229° |
| 2026-04-30 09:25 | 24.74506 | 118.21960 | 9191 ft | 277 kts | 229° |
| 2026-04-30 09:25 | 24.73168 | 118.20435 | 8929 ft | 276 kts | 229° |
| 2026-04-30 09:25 | 24.71835 | 118.18917 | 8663 ft | 275 kts | 229° |
| 2026-04-30 09:25 | 24.70513 | 118.17411 | 8410 ft | 270 kts | 229° |
| 2026-04-30 09:26 | 24.69227 | 118.15948 | 8179 ft | 263 kts | 228° |
| 2026-04-30 09:26 | 24.67963 | 118.14508 | 7974 ft | 261 kts | 228° |
| 2026-04-30 09:26 | 24.66706 | 118.13077 | 7773 ft | 259 kts | 228° |
| 2026-04-30 09:26 | 24.65452 | 118.11651 | 7570 ft | 260 kts | 228° |
| 2026-04-30 09:27 | 24.64212 | 118.10240 | 7381 ft | 259 kts | 228° |
| 2026-04-30 09:27 | 24.62965 | 118.08823 | 7182 ft | 256 kts | 228° |
| 2026-04-30 09:27 | 24.61748 | 118.07441 | 6972 ft | 249 kts | 228° |
| 2026-04-30 09:27 | 24.60562 | 118.06093 | 6857 ft | 245 kts | 228° |
| 2026-04-30 09:28 | 24.59371 | 118.04739 | 6695 ft | 245 kts | 227° |
| 2026-04-30 09:28 | 24.58204 | 118.03414 | 6527 ft | 238 kts | 227° |
| 2026-04-30 09:28 | 24.57057 | 118.02112 | 6354 ft | 236 kts | 227° |
| 2026-04-30 09:28 | 24.55975 | 118.00765 | 6167 ft | 236 kts | 231° |
| 2026-04-30 09:29 | 24.54875 | 117.99460 | 5970 ft | 226 kts | 228° |
| 2026-04-30 09:29 | 24.53831 | 117.98249 | 5764 ft | 217 kts | 229° |
| 2026-04-30 09:29 | 24.52816 | 117.97028 | 5561 ft | 214 kts | 229° |
| 2026-04-30 09:29 | 24.51821 | 117.95818 | 5342 ft | 212 kts | 229° |
| 2026-04-30 09:30 | 24.50848 | 117.94640 | 5148 ft | 207 kts | 230° |
| 2026-04-30 09:30 | 24.49884 | 117.93485 | 4927 ft | 204 kts | 230° |
| 2026-04-30 09:30 | 24.48922 | 117.92316 | 4739 ft | 204 kts | 230° |
| 2026-04-30 09:30 | 24.47985 | 117.91190 | 4507 ft | 196 kts | 230° |
| 2026-04-30 09:31 | 24.47070 | 117.90085 | 4296 ft | 195 kts | 229° |
| 2026-04-30 09:31 | 24.46104 | 117.89047 | 4046 ft | 196 kts | 216° |
| 2026-04-30 09:31 | 24.44783 | 117.88836 | 3759 ft | 200 kts | 165° |
| 2026-04-30 09:31 | 24.43628 | 117.89607 | 3494 ft | 193 kts | 133° |
| 2026-04-30 09:32 | 24.42843 | 117.90745 | 3284 ft | 185 kts | 124° |
| 2026-04-30 09:32 | 24.42093 | 117.91868 | 3085 ft | 178 kts | 126° |
| 2026-04-30 09:32 | 24.41376 | 117.92926 | 2942 ft | 166 kts | 119° |
| 2026-04-30 09:32 | 24.41340 | 117.94128 | 2855 ft | 163 kts | 66° |
| 2026-04-30 09:33 | 24.41927 | 117.95188 | 2977 ft | 164 kts | 55° |
| 2026-04-30 09:33 | 24.42606 | 117.96223 | 2984 ft | 166 kts | 52° |
| 2026-04-30 09:33 | 24.43310 | 117.97228 | 2982 ft | 167 kts | 51° |
| 2026-04-30 09:33 | 24.44019 | 117.98222 | 2982 ft | 164 kts | 51° |
| 2026-04-30 09:34 | 24.44732 | 117.99219 | 2822 ft | 163 kts | 50° |
| 2026-04-30 09:34 | 24.45433 | 118.00196 | 2620 ft | 163 kts | 51° |
| 2026-04-30 09:34 | 24.46135 | 118.01175 | 2405 ft | 163 kts | 52° |
| 2026-04-30 09:34 | 24.46839 | 118.02158 | 2189 ft | 164 kts | 52° |
| 2026-04-30 09:35 | 24.47535 | 118.03129 | 1974 ft | 164 kts | 53° |
| 2026-04-30 09:35 | 24.48234 | 118.04106 | 1754 ft | 163 kts | 53° |
| 2026-04-30 09:35 | 24.48911 | 118.05066 | 1524 ft | 157 kts | 54° |
| 2026-04-30 09:35 | 24.49583 | 118.06010 | 1341 ft | 155 kts | 54° |
| 2026-04-30 09:36 | 24.50251 | 118.06938 | 1148 ft | 153 kts | 53° |
| 2026-04-30 09:36 | 24.50895 | 118.07833 | 918 ft | 147 kts | 53° |
| 2026-04-30 09:36 | 24.51527 | 118.08717 | 770 ft | 148 kts | 52° |
| 2026-04-30 09:36 | 24.52158 | 118.09607 | 522 ft | 149 kts | 53° |
| 2026-04-30 09:37 | 24.52787 | 118.10504 | 355 ft | 150 kts | 51° |
| 2026-04-30 09:37 | 24.53437 | 118.11402 | 141 ft | 147 kts | 51° |
| 2026-04-30 09:37 | 24.53990 | 118.12178 | 55 ft | 98 kts | 53° |
| 2026-04-30 09:37 | 24.54252 | 118.12541 | 53 ft | 33 kts | 51° |
| 2026-04-30 09:38 | 24.54402 | 118.12753 | 53 ft | 35 kts | 52° |
| 2026-04-30 09:38 | 24.54510 | 118.12973 | 54 ft | 29 kts | 76° |
| 2026-04-30 09:38 | 24.54532 | 118.13133 | 52 ft | 13 kts | 104° |
| 2026-04-30 09:38 | 24.54502 | 118.13160 | 49 ft | 4 kts | 186° |
| 2026-04-30 09:39 | 24.54453 | 118.13112 | 56 ft | 14 kts | 232° |
| 2026-04-30 09:39 | 24.54392 | 118.13026 | 50 ft | 15 kts | 232° |
| 2026-04-30 09:39 | 24.54328 | 118.12936 | 51 ft | 15 kts | 232° |
| 2026-04-30 09:39 | 24.54261 | 118.12842 | 59 ft | 16 kts | 232° |
| 2026-04-30 09:40 | 24.54191 | 118.12745 | 56 ft | 17 kts | 231° |
| 2026-04-30 09:40 | 24.54118 | 118.12644 | 56 ft | 17 kts | 231° |
| 2026-04-30 09:40 | 24.54042 | 118.12539 | 54 ft | 18 kts | 229° |
| 2026-04-30 09:40 | 24.53953 | 118.12544 | 61 ft | 13 kts | 147° |
| 2026-04-30 09:41 | 24.53871 | 118.12600 | 54 ft | 14 kts | 150° |
| 2026-04-30 09:41 | 24.53836 | 118.12626 | 61 ft | 0 kts | 142° |